createdAt,value
2024-02-14T00:00:42.469Z,15.07
2024-02-14T00:03:09.425Z,18.88
2024-02-14T00:05:36.417Z,15.43
2024-02-14T00:08:04.496Z,17.20
2024-02-14T00:10:31.183Z,16.77
2024-02-14T00:12:57.851Z,20.67
2024-02-14T00:15:26.746Z,18.05
2024-02-14T00:17:54.675Z,19.30
2024-02-14T00:20:21.447Z,18.95
2024-02-14T00:22:54.543Z,18.20
2024-02-14T00:25:21.349Z,16.50
2024-02-14T00:27:49.627Z,15.48
2024-02-14T00:30:16.520Z,15.75
2024-02-14T00:33:03.494Z,21.02
2024-02-14T00:35:30.376Z,22.00
2024-02-14T00:37:57.131Z,19.67
2024-02-14T00:40:23.892Z,20.05
2024-02-14T00:42:50.461Z,15.93
2024-02-14T00:45:17.098Z,18.23
2024-02-14T00:47:43.934Z,21.23
2024-02-14T00:50:11.113Z,19.40
2024-02-14T00:52:37.734Z,18.30
2024-02-14T00:55:04.831Z,16.55
2024-02-14T00:57:33.584Z,21.23
2024-02-14T01:00:01.141Z,17.80
2024-02-14T01:02:31.731Z,18.05
2024-02-14T01:04:58.380Z,19.02
2024-02-14T01:07:25.290Z,19.25
2024-02-14T01:09:52.658Z,21.95
2024-02-14T01:12:19.330Z,18.88
2024-02-14T01:14:46.115Z,20.38
2024-02-14T01:17:13.150Z,22.38
2024-02-14T01:19:39.943Z,19.85
2024-02-14T01:22:07.294Z,18.83
2024-02-14T01:24:35.855Z,19.30
2024-02-14T01:27:03.997Z,19.95
2024-02-14T01:29:30.762Z,23.15
2024-02-14T01:31:57.401Z,20.75
2024-02-14T01:34:25.222Z,23.55
2024-02-14T01:36:52.116Z,18.13
2024-02-14T01:39:19.657Z,21.55
2024-02-14T01:41:50.033Z,22.92
2024-02-14T01:44:17.682Z,19.38
2024-02-14T01:46:45.317Z,19.13
2024-02-14T01:49:13.386Z,24.48
2024-02-14T01:51:43.265Z,18.50
2024-02-14T01:54:10.221Z,24.60
2024-02-14T01:56:36.864Z,25.63
2024-02-14T01:59:03.751Z,22.13
2024-02-14T02:04:19.246Z,22.58
2024-02-14T02:06:45.948Z,20.42
2024-02-14T02:09:12.749Z,24.90
2024-02-14T02:11:52.704Z,23.17
2024-02-14T02:14:41.325Z,24.50
2024-02-14T02:17:28.254Z,24.40
2024-02-14T02:20:16.612Z,21.08
2024-02-14T02:22:46.365Z,23.73
2024-02-14T02:25:32.941Z,23.75
2024-02-14T02:28:15.714Z,23.63
2024-02-14T02:30:47.496Z,28.23
2024-02-14T02:33:14.915Z,24.85
2024-02-14T02:38:29.846Z,26.73
2024-02-14T02:44:03.029Z,26.80
2024-02-14T02:49:38.390Z,24.03
2024-02-14T02:52:25.542Z,24.05
2024-02-14T02:55:12.213Z,27.30
2024-02-14T02:57:47.122Z,28.15
2024-02-14T03:00:14.561Z,24.00
2024-02-14T03:02:47.753Z,25.52
2024-02-14T03:05:34.748Z,27.25
2024-02-14T03:08:17.149Z,24.50
2024-02-14T03:11:07.600Z,25.67
2024-02-14T03:13:54.878Z,24.92
2024-02-14T03:16:41.445Z,27.10
2024-02-14T03:19:08.170Z,30.08
2024-02-14T03:21:36.456Z,26.65
2024-02-14T03:24:06.554Z,25.08
2024-02-14T03:26:34.628Z,28.27
2024-02-14T03:29:01.984Z,29.77
2024-02-14T03:31:28.630Z,25.30
2024-02-14T03:33:55.450Z,31.17
2024-02-14T03:36:22.328Z,27.77
2024-02-14T03:38:48.926Z,29.33
2024-02-14T03:41:16.042Z,21.98
2024-02-14T03:43:42.840Z,29.88
2024-02-14T03:46:09.539Z,20.48
2024-02-14T03:48:36.759Z,21.13
2024-02-14T03:51:04.485Z,26.38
2024-02-14T03:53:32.590Z,25.15
2024-02-14T03:55:59.149Z,22.48
2024-02-14T03:58:25.825Z,21.45
2024-02-14T04:00:53.409Z,25.00
2024-02-14T04:03:20.208Z,22.30
2024-02-14T04:05:48.965Z,31.90
2024-02-14T04:08:15.905Z,22.80
2024-02-14T04:10:42.663Z,24.10
2024-02-14T04:13:11.018Z,27.00
2024-02-14T04:15:37.681Z,26.38
2024-02-14T04:18:10.200Z,29.55
2024-02-14T04:20:37.116Z,27.27
2024-02-14T04:23:07.115Z,31.27
2024-02-14T04:25:34.775Z,29.67
2024-02-14T04:28:01.409Z,23.60
2024-02-14T04:30:28.963Z,25.85
2024-02-14T04:33:04.294Z,25.35
2024-02-14T04:35:31.225Z,31.23
2024-02-14T04:37:58.554Z,22.52
2024-02-14T04:40:25.535Z,27.25
2024-02-14T04:42:52.664Z,19.38
2024-02-14T04:45:19.496Z,26.38
2024-02-14T04:47:55.243Z,21.83
2024-02-14T04:50:21.855Z,24.17
2024-02-14T04:52:48.485Z,23.35
2024-02-14T04:55:15.235Z,23.15
2024-02-14T04:57:41.862Z,23.30
2024-02-14T05:00:10.853Z,26.77
2024-02-14T05:02:38.878Z,23.75
2024-02-14T05:05:06.950Z,25.80
2024-02-14T05:07:35.694Z,23.73
2024-02-14T05:10:02.383Z,30.08
2024-02-14T05:12:30.881Z,21.63
2024-02-14T05:14:57.728Z,24.33
2024-02-14T05:17:24.675Z,25.13
2024-02-14T05:19:51.946Z,26.77
2024-02-14T05:22:19.414Z,25.88
2024-02-14T05:24:47.435Z,22.95
2024-02-14T05:27:14.392Z,29.35
2024-02-14T05:29:41.213Z,27.42
2024-02-14T05:32:10.715Z,28.92
2024-02-14T05:34:37.559Z,31.00
2024-02-14T05:37:06.724Z,26.50
2024-02-14T05:39:33.524Z,32.83
2024-02-14T05:42:00.654Z,33.50
2024-02-14T05:44:28.579Z,29.33
2024-02-14T05:46:55.997Z,37.47
2024-02-14T05:49:23.314Z,32.00
2024-02-14T05:51:51.153Z,41.97
2024-02-14T05:54:17.824Z,36.28
2024-02-14T05:56:44.541Z,35.47
2024-02-14T05:59:11.449Z,37.95
2024-02-14T06:01:38.288Z,26.58
2024-02-14T06:04:05.147Z,34.85
2024-02-14T06:06:31.921Z,38.47
2024-02-14T06:08:59.309Z,24.35
2024-02-14T06:11:26.200Z,27.42
2024-02-14T06:13:52.765Z,34.80
2024-02-14T06:16:19.606Z,27.48
2024-02-14T06:18:46.902Z,30.67
2024-02-14T06:21:13.813Z,32.15
2024-02-14T06:23:41.262Z,27.10
2024-02-14T06:26:08.204Z,37.10
2024-02-14T06:28:34.847Z,32.60
2024-02-14T06:31:01.980Z,34.40
2024-02-14T06:33:29.618Z,31.48
2024-02-14T06:35:56.743Z,29.58
2024-02-14T06:38:23.576Z,30.10
2024-02-14T06:40:50.589Z,31.00
2024-02-14T06:43:17.201Z,31.73
2024-02-14T06:45:44.758Z,31.15
2024-02-14T06:48:25.032Z,29.92
2024-02-14T06:50:52.378Z,30.23
2024-02-14T06:53:19.194Z,31.60
2024-02-14T06:55:47.765Z,37.55
2024-02-14T06:58:14.661Z,32.13
2024-02-14T07:00:41.460Z,36.58
2024-02-14T07:03:08.272Z,35.40
2024-02-14T07:05:37.572Z,32.67
2024-02-14T07:08:04.427Z,35.30
2024-02-14T07:10:31.356Z,36.08
2024-02-14T07:12:57.929Z,36.28
2024-02-14T07:15:27.101Z,46.67
2024-02-14T07:17:54.388Z,43.22
2024-02-14T07:20:21.499Z,40.85
2024-02-14T07:22:54.186Z,37.08
2024-02-14T07:25:21.009Z,36.28
2024-02-14T07:27:49.799Z,40.15
2024-02-14T07:30:18.055Z,40.80
2024-02-14T07:32:45.694Z,40.05
2024-02-14T07:35:14.506Z,37.25
2024-02-14T07:37:42.598Z,47.53
2024-02-14T07:40:09.460Z,49.95
2024-02-14T07:45:22.447Z,43.13
2024-02-14T07:47:51.052Z,37.80
2024-02-14T07:50:18.178Z,40.65
2024-02-14T07:52:45.247Z,53.15
2024-02-14T07:55:13.536Z,51.95
2024-02-14T07:57:40.495Z,53.78
2024-02-14T08:00:09.336Z,47.13
2024-02-14T08:02:36.181Z,48.47
2024-02-14T08:05:03.410Z,62.17
2024-02-14T08:07:31.495Z,52.42
2024-02-14T08:09:58.138Z,64.40
2024-02-14T08:12:26.784Z,53.40
2024-02-14T08:14:53.485Z,55.35
2024-02-14T08:17:20.152Z,63.30
2024-02-14T08:19:47.010Z,54.67
2024-02-14T08:22:14.603Z,49.83
2024-02-14T08:24:41.305Z,57.28
2024-02-14T08:27:08.120Z,54.38
2024-02-14T08:29:35.426Z,51.53
2024-02-14T08:32:02.080Z,53.97
2024-02-14T08:34:28.970Z,51.85
2024-02-14T08:36:57.416Z,51.63
2024-02-14T08:39:24.184Z,66.50
2024-02-14T08:41:51.700Z,54.38
2024-02-14T08:44:19.240Z,60.42
2024-02-14T08:46:49.449Z,45.00
2024-02-14T08:49:16.438Z,51.88
2024-02-14T08:51:47.214Z,48.70
2024-02-14T08:54:15.658Z,46.60
2024-02-14T08:56:42.380Z,42.63
2024-02-14T08:59:09.144Z,46.05
2024-02-14T09:01:37.873Z,49.88
2024-02-14T09:04:04.842Z,44.72
2024-02-14T09:06:33.608Z,46.08
2024-02-14T09:09:00.301Z,47.83
2024-02-14T09:11:27.177Z,44.03
2024-02-14T09:13:57.003Z,37.60
2024-02-14T09:16:24.392Z,42.00
2024-02-14T09:18:51.337Z,34.33
2024-02-14T09:21:19.083Z,37.30
2024-02-14T09:23:47.993Z,39.33
2024-02-14T09:26:14.686Z,31.02
2024-02-14T09:28:41.778Z,35.63
2024-02-14T09:31:10.953Z,34.40
2024-02-14T09:33:38.195Z,27.75
2024-02-14T09:36:05.570Z,37.65
2024-02-14T09:38:33.050Z,31.95
2024-02-14T09:41:06.873Z,31.15
2024-02-14T09:43:39.191Z,25.33
2024-02-14T09:46:05.961Z,26.38
2024-02-14T09:48:33.636Z,35.70
2024-02-14T09:51:01.013Z,33.60
2024-02-14T09:53:29.714Z,30.45
2024-02-14T09:55:56.781Z,30.23
2024-02-14T09:58:23.666Z,31.70
2024-02-14T10:00:55.271Z,29.23
2024-02-14T10:03:24.793Z,33.05
2024-02-14T10:05:51.730Z,30.48
2024-02-14T10:08:19.183Z,27.10
2024-02-14T10:10:50.967Z,26.10
2024-02-14T10:13:18.934Z,29.45
2024-02-14T10:15:46.335Z,25.08
2024-02-14T10:18:15.853Z,27.05
2024-02-14T10:20:45.919Z,25.73
2024-02-14T10:23:13.502Z,31.63
2024-02-14T10:25:40.874Z,30.40
2024-02-14T10:28:11.349Z,34.47
2024-02-14T10:30:43.480Z,30.08
2024-02-14T10:33:17.400Z,27.85
2024-02-14T10:35:53.102Z,32.35
2024-02-14T10:38:21.310Z,24.10
2024-02-14T10:40:48.464Z,23.73
2024-02-14T10:43:15.137Z,27.70
2024-02-14T10:45:41.886Z,29.65
2024-02-14T10:48:12.204Z,26.52
2024-02-14T10:50:42.473Z,28.02
2024-02-14T10:53:13.638Z,31.15
2024-02-14T10:55:41.345Z,27.88
2024-02-14T10:58:09.165Z,28.50
2024-02-14T11:00:35.793Z,30.30
2024-02-14T11:03:03.078Z,28.80
2024-02-14T11:05:31.079Z,29.70
2024-02-14T11:07:57.892Z,27.13
2024-02-14T11:10:24.865Z,25.73
2024-02-14T11:12:52.110Z,29.67
2024-02-14T11:15:20.766Z,33.10
2024-02-14T11:17:52.780Z,28.95
2024-02-14T11:20:20.642Z,27.20
2024-02-14T11:22:54.998Z,26.40
2024-02-14T11:25:23.303Z,30.50
2024-02-14T11:27:50.691Z,32.20
2024-02-14T11:30:28.458Z,26.83
2024-02-14T11:32:55.339Z,28.95
2024-02-14T11:35:22.603Z,25.02
2024-02-14T11:37:52.705Z,26.80
2024-02-14T11:40:20.571Z,25.55
2024-02-14T11:42:48.858Z,31.52
2024-02-14T11:45:16.041Z,27.05
2024-02-14T11:47:43.025Z,29.33
2024-02-14T11:50:11.199Z,26.83
2024-02-14T11:52:38.263Z,26.13
2024-02-14T11:55:05.201Z,25.35
2024-02-14T11:57:31.912Z,27.08
2024-02-14T11:59:59.016Z,24.10
2024-02-14T12:02:26.244Z,23.27
2024-02-14T12:04:55.278Z,24.48
2024-02-14T12:07:23.730Z,23.35
2024-02-14T12:09:52.016Z,29.33
2024-02-14T12:12:18.796Z,23.40
2024-02-14T12:14:46.645Z,25.65
2024-02-14T12:17:13.334Z,22.33
2024-02-14T12:19:40.149Z,19.30
2024-02-14T12:22:12.877Z,23.67
2024-02-14T12:24:39.778Z,20.27
2024-02-14T12:27:06.961Z,18.25
2024-02-14T12:29:36.139Z,19.23
2024-02-14T12:32:09.651Z,19.00
2024-02-14T12:34:38.688Z,26.02
2024-02-14T12:37:07.565Z,20.85
2024-02-14T12:39:34.229Z,24.25
2024-02-14T12:42:03.562Z,20.75
2024-02-14T12:44:31.018Z,22.77
2024-02-14T12:46:58.042Z,23.67
2024-02-14T12:49:27.290Z,28.70
2024-02-14T12:51:54.129Z,23.45
2024-02-14T12:54:21.019Z,19.73
2024-02-14T12:56:47.680Z,24.58
2024-02-14T12:59:18.843Z,26.20
2024-02-14T13:01:45.789Z,19.83
2024-02-14T13:04:13.206Z,20.42
2024-02-14T13:06:40.274Z,22.70
2024-02-14T13:09:07.252Z,17.48
2024-02-14T13:11:33.924Z,20.35
2024-02-14T13:14:00.955Z,18.27
2024-02-14T13:16:27.657Z,19.40
2024-02-14T13:18:54.570Z,18.27
2024-02-14T13:21:21.375Z,21.13
2024-02-14T13:23:48.976Z,17.85
2024-02-14T13:26:15.518Z,22.95
2024-02-14T13:28:42.152Z,18.45
2024-02-14T13:31:08.822Z,19.35
2024-02-14T13:33:35.655Z,18.98
2024-02-14T13:36:02.580Z,18.00
2024-02-14T13:38:30.167Z,26.83
2024-02-14T13:40:56.725Z,19.67
2024-02-14T13:43:23.303Z,23.00
2024-02-14T13:45:51.511Z,23.25
2024-02-14T13:48:18.591Z,21.55
2024-02-14T13:50:45.374Z,20.83
2024-02-14T13:53:12.087Z,20.60
2024-02-14T13:55:40.243Z,17.05
2024-02-14T13:58:06.994Z,21.23
2024-02-14T14:00:34.786Z,22.77
2024-02-14T14:03:01.524Z,19.40
2024-02-14T14:05:28.610Z,27.08
2024-02-14T14:07:58.913Z,23.67
2024-02-14T14:10:27.662Z,23.45
2024-02-14T14:12:54.730Z,16.63
2024-02-14T14:15:23.322Z,20.35
2024-02-14T14:17:50.458Z,23.23
2024-02-14T14:20:17.695Z,28.50
2024-02-14T14:22:44.400Z,27.70
2024-02-14T14:25:11.173Z,19.42
2024-02-14T14:27:37.783Z,22.48
2024-02-14T14:30:05.394Z,19.63
2024-02-14T14:32:32.265Z,19.65
2024-02-14T14:34:59.051Z,15.88
2024-02-14T14:37:25.694Z,15.02
2024-02-14T14:39:52.368Z,15.80
2024-02-14T14:42:19.704Z,16.55
2024-02-14T14:44:46.889Z,15.82
2024-02-14T14:47:14.366Z,13.93
2024-02-14T14:49:41.353Z,21.20
2024-02-14T14:52:08.157Z,15.43
2024-02-14T14:54:34.956Z,13.45
2024-02-14T14:57:05.226Z,16.42
2024-02-14T14:59:32.204Z,14.77
2024-02-14T15:01:59.063Z,15.73
2024-02-14T15:04:26.162Z,14.85
2024-02-14T15:06:54.146Z,16.20
2024-02-14T15:09:21.576Z,12.02
2024-02-14T15:11:48.450Z,12.68
2024-02-14T15:14:15.200Z,14.07
2024-02-14T15:16:44.941Z,15.73
2024-02-14T15:19:12.048Z,12.75
2024-02-14T15:21:39.109Z,12.35
2024-02-14T15:24:06.020Z,14.07
2024-02-14T15:26:50.727Z,13.88
2024-02-14T15:29:37.432Z,14.68
2024-02-14T15:34:50.733Z,12.38
2024-02-14T15:37:18.799Z,11.73
2024-02-14T15:39:46.041Z,17.40
2024-02-14T15:42:13.341Z,12.73
2024-02-14T15:44:40.336Z,10.82
2024-02-14T15:47:08.632Z,13.30
2024-02-14T15:49:36.679Z,13.95
2024-02-14T15:52:03.751Z,11.45
2024-02-14T15:54:30.553Z,14.40
2024-02-14T15:56:57.351Z,13.60
2024-02-14T15:59:24.028Z,27.80
2024-02-14T16:01:50.697Z,15.70
2024-02-14T16:04:17.553Z,11.57
2024-02-14T16:06:44.330Z,11.68
2024-02-14T16:09:11.731Z,12.38
2024-02-14T16:11:38.372Z,12.85
2024-02-14T16:14:05.264Z,14.77
2024-02-14T16:16:32.931Z,14.68
2024-02-14T16:19:01.231Z,13.23
2024-02-14T16:21:28.049Z,13.75
2024-02-14T16:23:54.995Z,13.95
2024-02-14T16:26:21.571Z,14.45
2024-02-14T16:28:52.232Z,14.13
2024-02-14T16:31:19.074Z,12.00
2024-02-14T16:33:45.851Z,15.55
2024-02-14T16:36:12.888Z,13.48
2024-02-14T16:38:39.895Z,12.27
2024-02-14T16:41:06.563Z,16.40
2024-02-14T16:43:33.430Z,10.70
2024-02-14T16:46:00.343Z,15.27
2024-02-14T16:48:27.262Z,15.88
2024-02-14T16:50:54.299Z,12.45
2024-02-14T16:53:20.965Z,14.27
2024-02-14T16:55:47.624Z,12.95
2024-02-14T16:58:14.321Z,11.70
2024-02-14T17:00:41.417Z,14.63
2024-02-14T17:03:15.474Z,14.35
2024-02-14T17:05:45.728Z,17.88
2024-02-14T17:08:13.256Z,17.67
2024-02-14T17:10:39.991Z,18.40
2024-02-14T17:13:06.812Z,23.17
2024-02-14T17:15:33.413Z,22.00
2024-02-14T17:18:00.192Z,16.50
2024-02-14T17:20:27.177Z,26.40
2024-02-14T17:22:53.967Z,21.13
2024-02-14T17:25:21.316Z,18.60
2024-02-14T17:27:48.568Z,20.85
2024-02-14T17:30:15.808Z,21.08
2024-02-14T17:32:49.403Z,18.02
2024-02-14T17:35:16.632Z,21.77
2024-02-14T17:37:43.358Z,21.38
2024-02-14T17:40:10.791Z,22.00
2024-02-14T17:42:37.674Z,16.50
2024-02-14T17:45:07.421Z,19.55
2024-02-14T17:47:36.221Z,19.08
2024-02-14T17:50:04.377Z,19.85
2024-02-14T17:52:31.702Z,15.93
2024-02-14T17:54:58.825Z,19.15
2024-02-14T17:57:26.065Z,20.67
2024-02-14T17:59:53.720Z,19.20
2024-02-14T18:02:21.353Z,11.90
2024-02-14T18:04:48.190Z,22.90
2024-02-14T18:07:15.537Z,14.98
2024-02-14T18:09:42.467Z,15.50
2024-02-14T18:12:09.813Z,11.70
2024-02-14T18:14:36.621Z,16.77
2024-02-14T18:17:03.447Z,11.10
2024-02-14T18:19:30.452Z,17.92
2024-02-14T18:21:58.713Z,12.82
2024-02-14T18:24:25.615Z,16.88
2024-02-14T18:26:52.358Z,17.00
2024-02-14T18:29:19.154Z,13.40
2024-02-14T18:31:45.984Z,13.45
2024-02-14T18:34:12.906Z,13.50
2024-02-14T18:36:40.017Z,13.70
2024-02-14T18:39:07.161Z,17.70
2024-02-14T18:41:36.188Z,26.30
2024-02-14T18:44:06.699Z,15.98
2024-02-14T18:46:33.702Z,18.70
2024-02-14T18:49:01.070Z,17.02
2024-02-14T18:51:28.012Z,21.98
2024-02-14T18:53:55.083Z,16.08
2024-02-14T18:56:22.066Z,17.83
2024-02-14T18:58:50.542Z,16.10
2024-02-14T19:01:27.192Z,17.08
2024-02-14T19:03:57.246Z,14.85
2024-02-14T19:06:24.351Z,19.55
2024-02-14T19:08:52.608Z,17.75
2024-02-14T19:11:20.287Z,18.20
2024-02-14T19:13:47.101Z,21.95
2024-02-14T19:16:24.265Z,14.65
2024-02-14T19:18:55.624Z,17.02
2024-02-14T19:21:22.778Z,22.38
2024-02-14T19:23:49.726Z,19.42
2024-02-14T19:26:16.907Z,19.13
2024-02-14T19:28:43.859Z,19.67
2024-02-14T19:31:11.771Z,22.98
2024-02-14T19:33:38.952Z,19.45
2024-02-14T19:36:08.690Z,13.65
2024-02-14T19:38:35.969Z,16.83
2024-02-14T19:41:02.865Z,18.15
2024-02-14T19:43:35.292Z,18.02
2024-02-14T19:46:06.510Z,20.50
2024-02-14T19:48:34.039Z,19.17
2024-02-14T19:51:03.021Z,26.63
2024-02-14T19:53:29.800Z,19.63
2024-02-14T19:55:58.562Z,19.55
2024-02-14T19:58:25.682Z,20.10
2024-02-14T20:00:52.218Z,20.02
2024-02-14T20:03:21.375Z,24.33
2024-02-14T20:05:48.971Z,16.27
2024-02-14T20:08:16.199Z,18.35
2024-02-14T20:10:43.330Z,22.88
2024-02-14T20:13:09.953Z,99.35
2024-02-14T20:15:36.580Z,33.85
2024-02-14T20:18:03.475Z,25.02
2024-02-14T20:20:30.380Z,156.65
2024-02-14T20:22:57.049Z,40.85
2024-02-14T20:25:23.818Z,39.95
2024-02-14T20:27:50.901Z,34.90
2024-02-14T20:30:20.431Z,31.20
2024-02-14T20:32:48.324Z,28.60
2024-02-14T20:35:16.158Z,23.55
2024-02-14T20:37:44.234Z,30.83
2024-02-14T20:40:14.451Z,34.92
2024-02-14T20:42:42.410Z,30.08
2024-02-14T20:45:09.455Z,35.80
2024-02-14T20:47:37.063Z,28.67
2024-02-14T20:50:04.042Z,20.80
2024-02-14T20:52:30.817Z,28.05
2024-02-14T20:54:57.528Z,26.67
2024-02-14T20:57:24.434Z,20.27
2024-02-14T20:59:51.540Z,26.30
2024-02-14T21:02:21.499Z,21.02
2024-02-14T21:04:48.462Z,23.90
2024-02-14T21:07:18.191Z,18.13
2024-02-14T21:09:44.873Z,24.42
2024-02-14T21:12:11.486Z,17.30
2024-02-14T21:14:38.358Z,20.42
2024-02-14T21:17:05.133Z,25.80
2024-02-14T21:19:32.022Z,14.65
2024-02-14T21:21:58.690Z,24.13
2024-02-14T21:24:25.690Z,19.00
2024-02-14T21:26:53.408Z,24.10
2024-02-14T21:29:20.178Z,21.40
2024-02-14T21:31:46.860Z,20.77
2024-02-14T21:34:13.750Z,25.42
2024-02-14T21:36:40.981Z,20.15
2024-02-14T21:39:08.051Z,21.65
2024-02-14T21:41:35.926Z,21.45
2024-02-14T21:44:05.104Z,23.42
2024-02-14T21:46:31.795Z,26.40
2024-02-14T21:48:58.749Z,20.40
2024-02-14T21:51:29.310Z,30.42
2024-02-14T21:53:56.063Z,21.67
2024-02-14T21:56:22.722Z,24.23
2024-02-14T21:58:49.607Z,32.20
2024-02-14T22:01:16.260Z,24.15
2024-02-14T22:03:42.912Z,21.23
2024-02-14T22:06:09.566Z,18.88
2024-02-14T22:08:36.552Z,22.67
2024-02-14T22:11:03.899Z,26.50
2024-02-14T22:13:31.936Z,26.45
2024-02-14T22:15:58.556Z,28.67
2024-02-14T22:18:26.468Z,25.55
2024-02-14T22:20:54.094Z,27.13
2024-02-14T22:23:20.703Z,22.50
2024-02-14T22:25:47.323Z,29.23
2024-02-14T22:28:14.319Z,27.38
2024-02-14T22:30:42.516Z,22.95
2024-02-14T22:33:11.238Z,20.15
2024-02-14T22:35:38.203Z,22.80
2024-02-14T22:38:09.358Z,22.45
2024-02-14T22:40:36.313Z,23.92
2024-02-14T22:43:09.822Z,16.92
2024-02-14T22:45:37.214Z,21.38
2024-02-14T22:48:04.473Z,17.20
2024-02-14T22:50:31.709Z,16.42
2024-02-14T22:52:58.804Z,17.42
2024-02-14T22:55:25.725Z,16.08
2024-02-14T22:57:52.288Z,14.52
2024-02-14T23:00:23.440Z,19.92
2024-02-14T23:02:50.882Z,19.83
2024-02-14T23:05:24.954Z,14.38
2024-02-14T23:07:51.639Z,14.07
2024-02-14T23:10:18.324Z,11.23
2024-02-14T23:12:46.023Z,12.80
2024-02-14T23:15:13.414Z,11.18
2024-02-14T23:17:40.640Z,19.13
2024-02-14T23:20:08.035Z,13.05
2024-02-14T23:22:35.999Z,13.52
2024-02-14T23:25:03.556Z,21.65
2024-02-14T23:27:30.863Z,17.92
2024-02-14T23:29:57.519Z,17.83
2024-02-14T23:32:24.229Z,18.75
2024-02-14T23:34:50.957Z,12.63
2024-02-14T23:37:17.575Z,12.77
2024-02-14T23:39:45.201Z,13.23
2024-02-14T23:42:11.919Z,13.73
2024-02-14T23:44:38.550Z,12.45
2024-02-14T23:47:05.423Z,18.20
2024-02-14T23:49:32.868Z,18.02
2024-02-14T23:51:59.567Z,19.13
2024-02-14T23:54:26.168Z,16.67
2024-02-14T23:56:53.680Z,18.50
2024-02-14T23:59:20.339Z,18.52
